Airfield :
LOGIN :

Register | Disclaimer

   EN    FR    IT 

 










Legend :    VFR   Marginal VFR   IFR   Intensive IFR   Very Intensive IFR
Visi :
Ceiling :
>= 8 km
>= 3000ft
5 to 8 km
1000 to 3000 ft
1500m to 5 km
500 to 1000 ft
800 to 1500m
200 to 500 ft
< 800m
< 200 ft
Symbols :   Thunderstorms  Fog  Heavy snow  Heavy precipitations  Wind > 20 kt
SIGMETs :     Misc.  Thunderstorms  Icing  Turbulence  Mountain Waves  Volcanic Ashes






- Airport Elevation : 125 ft
- IATA code : MGL


EDLN - Mönchengladbach

CURRENT METAR :
  • 280650Z 15005KT 9999 OVC025 06/05 Q1010

EXPIRED METARs :
  • 280620Z AUTO 13007KT 110V170 9999 // FEW026/// SCT052/// OVC063/// 06/05 Q1010
  • 280550Z AUTO 14006KT 100V170 9999 // SCT050/// OVC068/// 06/05 Q1010
  • 280520Z AUTO 13006KT 110V170 9999 // FEW019/// OVC050/// 06/05 Q1010
  • 280450Z AUTO 14006KT 9999 // OVC044/// 06/06 Q1010

Expired Forecast.



MET'MAP, your aeronautical weather chart ! - Copyright ORBIFLY December 2007 - Disclaimer

ORBIFLY MET'MAP TEAM :

Programming & Development : Alexandra Zaïnal
Original concept : Baudouin d'Aumeries
Technical & hardware support : Manuel Goepfert
Assistance : Marc-Olivier Méhu




SOURCES & CREDITS :

   NOAA